sensor_id;sensor_type;location;lat;lon;timestamp;pressure;altitude;pressure_sealevel;temperature;humidity
46534;BME280;32260;52.008;4.752;2023-08-06T00:00:24;100488.91;;;18.01;73.60
46534;BME280;32260;52.008;4.752;2023-08-06T00:02:50;100482.78;;;17.99;73.38
46534;BME280;32260;52.008;4.752;2023-08-06T00:05:17;100475.53;;;18.01;73.43
46534;BME280;32260;52.008;4.752;2023-08-06T00:07:44;100492.38;;;18.03;73.58
46534;BME280;32260;52.008;4.752;2023-08-06T00:10:11;100477.16;;;18.04;73.35
46534;BME280;32260;52.008;4.752;2023-08-06T00:12:37;100475.31;;;18.04;73.47
46534;BME280;32260;52.008;4.752;2023-08-06T00:15:03;100475.25;;;18.06;73.66
46534;BME280;32260;52.008;4.752;2023-08-06T00:17:29;100471.69;;;18.05;73.42
46534;BME280;32260;52.008;4.752;2023-08-06T00:19:56;100473.44;;;18.06;73.77
46534;BME280;32260;52.008;4.752;2023-08-06T00:22:22;100473.44;;;18.06;73.87
46534;BME280;32260;52.008;4.752;2023-08-06T00:24:48;100476.91;;;18.08;73.59
46534;BME280;32260;52.008;4.752;2023-08-06T00:27:14;100467.97;;;18.08;73.69
46534;BME280;32260;52.008;4.752;2023-08-06T00:29:40;100482.16;;;18.10;73.38
46534;BME280;32260;52.008;4.752;2023-08-06T00:32:06;100474.13;;;18.10;73.84
46534;BME280;32260;52.008;4.752;2023-08-06T00:34:32;100474.97;;;18.10;73.51
46534;BME280;32260;52.008;4.752;2023-08-06T00:36:58;100481.22;;;18.11;73.60
46534;BME280;32260;52.008;4.752;2023-08-06T00:39:25;100473.09;;;18.13;73.51
46534;BME280;32260;52.008;4.752;2023-08-06T00:41:51;100473.09;;;18.13;73.49
46534;BME280;32260;52.008;4.752;2023-08-06T00:44:17;100473.09;;;18.13;73.67
46534;BME280;32260;52.008;4.752;2023-08-06T00:46:43;100478.44;;;18.13;73.66
46534;BME280;32260;52.008;4.752;2023-08-06T00:49:09;100472.38;;;18.09;73.75
46534;BME280;32260;52.008;4.752;2023-08-06T00:51:35;100476.91;;;18.08;73.61
46534;BME280;32260;52.008;4.752;2023-08-06T00:54:02;100475.16;;;18.07;73.90
46534;BME280;32260;52.008;4.752;2023-08-06T00:56:29;100476.03;;;18.08;73.63
46534;BME280;32260;52.008;4.752;2023-08-06T00:58:55;100476.03;;;18.08;73.61
46534;BME280;32260;52.008;4.752;2023-08-06T01:01:21;100478.63;;;18.09;73.69
46534;BME280;32260;52.008;4.752;2023-08-06T01:03:48;100478.53;;;18.11;73.66
46534;BME280;32260;52.008;4.752;2023-08-06T01:06:16;100474.81;;;18.14;73.47
46534;BME280;32260;52.008;4.752;2023-08-06T01:08:54;100479.13;;;18.16;73.71
46534;BME280;32260;52.008;4.752;2023-08-06T01:11:44;100473.50;;;18.21;73.71
46534;BME280;32260;52.008;4.752;2023-08-06T01:14:30;100472.72;;;18.19;73.50
46534;BME280;32260;52.008;4.752;2023-08-06T01:16:59;100474.81;;;18.14;73.64
46534;BME280;32260;52.008;4.752;2023-08-06T01:19:27;100467.72;;;18.13;73.64
46534;BME280;32260;52.008;4.752;2023-08-06T01:21:53;100473.09;;;18.13;74.05
46534;BME280;32260;52.008;4.752;2023-08-06T01:24:19;100466.88;;;18.12;73.79
46534;BME280;32260;52.008;4.752;2023-08-06T01:26:55;100464.88;;;18.16;73.84
46534;BME280;32260;52.008;4.752;2023-08-06T01:29:33;100465.63;;;18.18;73.66
46534;BME280;32260;52.008;4.752;2023-08-06T01:32:04;100471.94;;;18.17;73.58
46534;BME280;32260;52.008;4.752;2023-08-06T01:34:33;100466.69;;;18.15;73.88
46534;BME280;32260;52.008;4.752;2023-08-06T01:37:00;100463.25;;;18.13;73.84
46534;BME280;32260;52.008;4.752;2023-08-06T01:39:27;100473.97;;;18.13;73.76
46534;BME280;32260;52.008;4.752;2023-08-06T01:41:53;100469.63;;;18.10;73.77
46534;BME280;32260;52.008;4.752;2023-08-06T01:44:19;100467.91;;;18.09;73.74
46534;BME280;32260;52.008;4.752;2023-08-06T01:46:45;100472.38;;;18.09;73.75
46534;BME280;32260;52.008;4.752;2023-08-06T01:49:11;100472.38;;;18.09;73.85
46534;BME280;32260;52.008;4.752;2023-08-06T01:51:37;100477.75;;;18.09;73.94
46534;BME280;32260;52.008;4.752;2023-08-06T01:54:03;100485.69;;;18.10;73.74
46534;BME280;32260;52.008;4.752;2023-08-06T01:56:29;100485.69;;;18.10;73.73
46534;BME280;32260;52.008;4.752;2023-08-06T01:58:56;100488.38;;;18.10;73.89
46534;BME280;32260;52.008;4.752;2023-08-06T02:01:22;100490.22;;;18.10;73.90
46534;BME280;32260;52.008;4.752;2023-08-06T02:03:48;100497.31;;;18.11;73.86
46534;BME280;32260;52.008;4.752;2023-08-06T02:06:14;100499.09;;;18.10;73.81
46534;BME280;32260;52.008;4.752;2023-08-06T02:08:40;100498.16;;;18.11;73.82
46534;BME280;32260;52.008;4.752;2023-08-06T02:11:06;100491.84;;;18.13;73.97
46534;BME280;32260;52.008;4.752;2023-08-06T02:13:32;100501.63;;;18.14;73.78
46534;BME280;32260;52.008;4.752;2023-08-06T02:15:58;100496.16;;;18.15;73.84
46534;BME280;32260;52.008;4.752;2023-08-06T02:18:24;100493.59;;;18.14;73.85
46534;BME280;32260;52.008;4.752;2023-08-06T02:20:58;100493.34;;;18.18;73.84
46534;BME280;32260;52.008;4.752;2023-08-06T02:23:25;100493.50;;;18.15;73.66
46534;BME280;32260;52.008;4.752;2023-08-06T02:25:58;100497.81;;;18.18;73.72
46534;BME280;32260;52.008;4.752;2023-08-06T02:28:24;100490.91;;;18.14;73.76
46534;BME280;32260;52.008;4.752;2023-08-06T02:30:51;100503.47;;;18.13;73.82
46534;BME280;32260;52.008;4.752;2023-08-06T02:33:20;100497.13;;;18.14;73.78
46534;BME280;32260;52.008;4.752;2023-08-06T02:35:47;100497.22;;;18.13;73.74
46534;BME280;32260;52.008;4.752;2023-08-06T02:38:13;100506.19;;;18.11;73.97
46534;BME280;32260;52.008;4.752;2023-08-06T02:40:46;100504.22;;;18.15;73.78
46534;BME280;32260;52.008;4.752;2023-08-06T02:43:13;100504.56;;;18.09;73.78
46534;BME280;32260;52.008;4.752;2023-08-06T02:45:39;100505.44;;;18.09;73.72
46534;BME280;32260;52.008;4.752;2023-08-06T02:48:05;100504.66;;;18.07;73.71
46534;BME280;32260;52.008;4.752;2023-08-06T02:50:37;100503.72;;;18.08;73.91
46534;BME280;32260;52.008;4.752;2023-08-06T02:53:03;100501.97;;;18.07;73.83
46534;BME280;32260;52.008;4.752;2023-08-06T02:55:29;100503.81;;;18.07;73.57
46534;BME280;32260;52.008;4.752;2023-08-06T02:57:55;100507.34;;;18.07;73.76
46534;BME280;32260;52.008;4.752;2023-08-06T03:00:21;100502.91;;;18.06;73.79
46534;BME280;32260;52.008;4.752;2023-08-06T03:02:47;100504.81;;;18.04;73.52
46534;BME280;32260;52.008;4.752;2023-08-06T03:05:13;100507.69;;;18.01;74.27
46534;BME280;32260;52.008;4.752;2023-08-06T03:07:39;100497.91;;;18.00;74.10
46534;BME280;32260;52.008;4.752;2023-08-06T03:10:06;100496.97;;;18.01;74.10
46534;BME280;32260;52.008;4.752;2023-08-06T03:12:32;100495.22;;;18.00;74.31
46534;BME280;32260;52.008;4.752;2023-08-06T03:14:58;100504.22;;;17.99;74.41
46534;BME280;32260;52.008;4.752;2023-08-06T03:17:24;100498.84;;;17.99;73.93
46534;BME280;32260;52.008;4.752;2023-08-06T03:19:50;100499.91;;;17.97;73.97
46534;BME280;32260;52.008;4.752;2023-08-06T03:22:16;100491.22;;;17.91;74.39
46534;BME280;32260;52.008;4.752;2023-08-06T03:24:42;100501.09;;;17.91;74.30
46534;BME280;32260;52.008;4.752;2023-08-06T03:27:08;100503.94;;;17.88;74.62
46534;BME280;32260;52.008;4.752;2023-08-06T03:29:34;100505.06;;;17.84;74.70
46534;BME280;32260;52.008;4.752;2023-08-06T03:32:01;100501.44;;;17.85;74.70
46534;BME280;32260;52.008;4.752;2023-08-06T03:34:27;100501.59;;;17.82;74.98
46534;BME280;32260;52.008;4.752;2023-08-06T03:36:53;100501.69;;;17.80;75.02
46534;BME280;32260;52.008;4.752;2023-08-06T03:39:19;100503.66;;;17.76;74.94
46534;BME280;32260;52.008;4.752;2023-08-06T03:41:45;100505.41;;;17.77;74.92
46534;BME280;32260;52.008;4.752;2023-08-06T03:44:11;100508.09;;;17.77;74.30
46534;BME280;32260;52.008;4.752;2023-08-06T03:46:37;100505.50;;;17.76;75.05
46534;BME280;32260;52.008;4.752;2023-08-06T03:49:03;100507.22;;;17.77;74.82
46534;BME280;32260;52.008;4.752;2023-08-06T03:51:29;100509.91;;;17.77;74.95
46534;BME280;32260;52.008;4.752;2023-08-06T03:53:55;100501.94;;;17.75;74.92
46534;BME280;32260;52.008;4.752;2023-08-06T03:56:21;100509.22;;;17.73;75.09
46534;BME280;32260;52.008;4.752;2023-08-06T03:58:48;100512.84;;;17.72;75.06
46534;BME280;32260;52.008;4.752;2023-08-06T04:01:14;100511.94;;;17.72;75.37
46534;BME280;32260;52.008;4.752;2023-08-06T04:03:40;100508.31;;;17.73;75.30
46534;BME280;32260;52.008;4.752;2023-08-06T04:06:07;100513.69;;;17.73;75.30
46534;BME280;32260;52.008;4.752;2023-08-06T04:08:33;100523.56;;;17.72;75.37
46534;BME280;32260;52.008;4.752;2023-08-06T04:10:59;100527.19;;;17.71;75.62
46534;BME280;32260;52.008;4.752;2023-08-06T04:13:25;100534.66;;;17.49;76.33
46534;BME280;32260;52.008;4.752;2023-08-06T04:15:51;100536.78;;;17.42;75.42
46534;BME280;32260;52.008;4.752;2023-08-06T04:18:17;100555.97;;;17.17;74.85
46534;BME280;32260;52.008;4.752;2023-08-06T04:20:44;100557.16;;;16.93;74.35
46534;BME280;32260;52.008;4.752;2023-08-06T04:23:11;100568.72;;;16.57;74.11
46534;BME280;32260;52.008;4.752;2023-08-06T04:25:37;100559.19;;;16.34;74.90
46534;BME280;32260;52.008;4.752;2023-08-06T04:28:03;100568.13;;;16.33;74.93
46534;BME280;32260;52.008;4.752;2023-08-06T04:30:29;100571.19;;;16.25;75.54
46534;BME280;32260;52.008;4.752;2023-08-06T04:32:57;100582.16;;;16.19;75.74
46534;BME280;32260;52.008;4.752;2023-08-06T04:35:24;100576.22;;;16.12;75.96
46534;BME280;32260;52.008;4.752;2023-08-06T04:37:50;100580.16;;;16.05;76.14
46534;BME280;32260;52.008;4.752;2023-08-06T04:40:16;100585.91;;;15.96;76.94
46534;BME280;32260;52.008;4.752;2023-08-06T04:42:42;100591.13;;;15.99;76.69
46534;BME280;32260;52.008;4.752;2023-08-06T04:45:09;100594.75;;;15.98;76.48
46534;BME280;32260;52.008;4.752;2023-08-06T04:47:35;100600.00;;;15.99;76.93
46534;BME280;32260;52.008;4.752;2023-08-06T04:50:01;100594.44;;;16.04;76.71
46534;BME280;32260;52.008;4.752;2023-08-06T04:52:27;100587.16;;;16.08;76.92
46534;BME280;32260;52.008;4.752;2023-08-06T04:54:54;100585.63;;;16.02;77.69
46534;BME280;32260;52.008;4.752;2023-08-06T04:57:20;100602.25;;;16.09;77.11
46534;BME280;32260;52.008;4.752;2023-08-06T04:59:47;100587.94;;;16.10;77.14
46534;BME280;32260;52.008;4.752;2023-08-06T05:02:13;100592.50;;;16.08;76.87
46534;BME280;32260;52.008;4.752;2023-08-06T05:04:39;100598.50;;;15.94;76.97
46534;BME280;32260;52.008;4.752;2023-08-06T05:07:06;100598.50;;;15.94;77.06
46534;BME280;32260;52.008;4.752;2023-08-06T05:09:32;100596.03;;;15.89;76.92
46534;BME280;32260;52.008;4.752;2023-08-06T05:12:00;100595.38;;;15.84;77.26
46534;BME280;32260;52.008;4.752;2023-08-06T05:14:27;100601.94;;;15.96;76.71
46534;BME280;32260;52.008;4.752;2023-08-06T05:16:53;100598.34;;;15.97;76.66
46534;BME280;32260;52.008;4.752;2023-08-06T05:19:19;100601.94;;;15.96;76.54
46534;BME280;32260;52.008;4.752;2023-08-06T05:21:45;100607.16;;;15.99;76.53
46534;BME280;32260;52.008;4.752;2023-08-06T05:24:11;100610.91;;;15.95;76.44
46534;BME280;32260;52.008;4.752;2023-08-06T05:26:38;100614.44;;;15.95;76.85
46534;BME280;32260;52.008;4.752;2023-08-06T05:29:04;100628.66;;;15.96;76.43
46534;BME280;32260;52.008;4.752;2023-08-06T05:31:30;100624.22;;;15.96;76.64
46534;BME280;32260;52.008;4.752;2023-08-06T05:33:56;100634.16;;;15.93;76.50
46534;BME280;32260;52.008;4.752;2023-08-06T05:36:22;100635.63;;;16.00;76.27
46534;BME280;32260;52.008;4.752;2023-08-06T05:38:48;100649.03;;;15.98;76.59
46534;BME280;32260;52.008;4.752;2023-08-06T05:41:14;100648.91;;;16.01;76.52
46534;BME280;32260;52.008;4.752;2023-08-06T05:43:40;100657.06;;;15.98;77.28
46534;BME280;32260;52.008;4.752;2023-08-06T05:46:06;100652.34;;;16.04;76.99
46534;BME280;32260;52.008;4.752;2023-08-06T05:48:32;100659.31;;;16.08;77.33
46534;BME280;32260;52.008;4.752;2023-08-06T05:50:59;100660.25;;;16.07;77.50
46534;BME280;32260;52.008;4.752;2023-08-06T05:53:25;100670.31;;;16.21;77.28
46534;BME280;32260;52.008;4.752;2023-08-06T05:55:51;100673.06;;;16.19;77.53
46534;BME280;32260;52.008;4.752;2023-08-06T05:58:17;100668.34;;;16.24;77.69
46534;BME280;32260;52.008;4.752;2023-08-06T06:00:45;100674.44;;;16.28;77.48
46534;BME280;32260;52.008;4.752;2023-08-06T06:03:12;100669.72;;;16.33;77.01
46534;BME280;32260;52.008;4.752;2023-08-06T06:05:38;100676.16;;;16.29;77.26
46534;BME280;32260;52.008;4.752;2023-08-06T06:08:05;100673.22;;;16.35;76.95
46534;BME280;32260;52.008;4.752;2023-08-06T06:10:31;100675.81;;;16.37;77.09
46534;BME280;32260;52.008;4.752;2023-08-06T06:12:57;100677.47;;;16.39;76.69
46534;BME280;32260;52.008;4.752;2023-08-06T06:15:23;100688.00;;;16.42;76.76
46534;BME280;32260;52.008;4.752;2023-08-06T06:17:49;100690.63;;;16.44;76.79
46534;BME280;32260;52.008;4.752;2023-08-06T06:20:15;100690.47;;;16.47;76.50
46534;BME280;32260;52.008;4.752;2023-08-06T06:22:41;100697.84;;;16.42;76.73
46534;BME280;32260;52.008;4.752;2023-08-06T06:25:08;100699.13;;;16.33;76.60
46534;BME280;32260;52.008;4.752;2023-08-06T06:27:34;100703.69;;;16.31;76.63
46534;BME280;32260;52.008;4.752;2023-08-06T06:30:00;100708.09;;;16.32;76.56
46534;BME280;32260;52.008;4.752;2023-08-06T06:32:26;100708.00;;;16.33;76.49
46534;BME280;32260;52.008;4.752;2023-08-06T06:34:53;100717.84;;;16.33;76.63
46534;BME280;32260;52.008;4.752;2023-08-06T06:37:20;100714.09;;;16.37;76.51
46534;BME280;32260;52.008;4.752;2023-08-06T06:39:46;100710.47;;;16.38;76.40
46534;BME280;32260;52.008;4.752;2023-08-06T06:42:12;100721.25;;;16.37;77.18
46534;BME280;32260;52.008;4.752;2023-08-06T06:44:38;100726.41;;;16.41;76.90
46534;BME280;32260;52.008;4.752;2023-08-06T06:47:04;100727.97;;;16.45;76.82
46534;BME280;32260;52.008;4.752;2023-08-06T06:49:30;100726.16;;;16.46;76.76
46534;BME280;32260;52.008;4.752;2023-08-06T06:51:56;100729.28;;;16.56;76.43
46534;BME280;32260;52.008;4.752;2023-08-06T06:54:22;100730.28;;;16.53;77.01
46534;BME280;32260;52.008;4.752;2023-08-06T06:56:48;100738.09;;;16.58;77.14
46534;BME280;32260;52.008;4.752;2023-08-06T06:59:14;100729.16;;;16.59;76.92
46534;BME280;32260;52.008;4.752;2023-08-06T07:01:40;100734.34;;;16.62;76.90
46534;BME280;32260;52.008;4.752;2023-08-06T07:04:06;100739.84;;;16.59;77.39
46534;BME280;32260;52.008;4.752;2023-08-06T07:06:32;100737.66;;;16.67;77.16
46534;BME280;32260;52.008;4.752;2023-08-06T07:08:59;100740.13;;;16.72;76.97
46534;BME280;32260;52.008;4.752;2023-08-06T07:11:25;100734.56;;;16.76;76.93
46534;BME280;32260;52.008;4.752;2023-08-06T07:13:57;100742.59;;;16.76;77.40
46534;BME280;32260;52.008;4.752;2023-08-06T07:16:25;100738.00;;;16.78;77.08
46534;BME280;32260;52.008;4.752;2023-08-06T07:18:53;100745.75;;;16.85;77.18
46534;BME280;32260;52.008;4.752;2023-08-06T07:21:20;100740.47;;;16.83;77.21
46534;BME280;32260;52.008;4.752;2023-08-06T07:23:46;100746.72;;;16.84;77.39
46534;BME280;32260;52.008;4.752;2023-08-06T07:26:15;100744.69;;;16.89;77.12
46534;BME280;32260;52.008;4.752;2023-08-06T07:28:42;100748.66;;;16.80;77.75
46534;BME280;32260;52.008;4.752;2023-08-06T07:31:08;100760.09;;;16.84;77.29
46534;BME280;32260;52.008;4.752;2023-08-06T07:33:34;100752.06;;;16.84;77.46
46534;BME280;32260;52.008;4.752;2023-08-06T07:36:06;100755.69;;;16.82;77.42
46534;BME280;32260;52.008;4.752;2023-08-06T07:38:32;100758.06;;;17.08;76.64
46534;BME280;32260;52.008;4.752;2023-08-06T07:41:02;100758.56;;;16.97;77.28
46534;BME280;32260;52.008;4.752;2023-08-06T07:43:28;100760.97;;;17.03;77.00
46534;BME280;32260;52.008;4.752;2023-08-06T07:45:54;100768.06;;;17.04;77.14
46534;BME280;32260;52.008;4.752;2023-08-06T07:48:23;100761.59;;;17.08;76.91
46534;BME280;32260;52.008;4.752;2023-08-06T07:50:52;100760.53;;;17.12;76.95
46534;BME280;32260;52.008;4.752;2023-08-06T07:53:20;100771.31;;;17.11;76.70
46534;BME280;32260;52.008;4.752;2023-08-06T07:55:50;100765.97;;;17.11;76.73
46534;BME280;32260;52.008;4.752;2023-08-06T07:58:16;100770.53;;;17.09;76.44
46534;BME280;32260;52.008;4.752;2023-08-06T08:00:42;100769.34;;;17.14;76.35
46534;BME280;32260;52.008;4.752;2023-08-06T08:03:11;100774.97;;;17.08;76.32
46534;BME280;32260;52.008;4.752;2023-08-06T08:05:39;100768.22;;;17.01;76.32
46534;BME280;32260;52.008;4.752;2023-08-06T08:08:05;100771.63;;;17.05;76.20
46534;BME280;32260;52.008;4.752;2023-08-06T08:10:32;100768.78;;;17.08;76.15
46534;BME280;32260;52.008;4.752;2023-08-06T08:12:58;100769.34;;;17.14;76.05
46534;BME280;32260;52.008;4.752;2023-08-06T08:15:26;100767.31;;;17.20;76.13
46534;BME280;32260;52.008;4.752;2023-08-06T08:17:52;100769.34;;;17.14;76.00
46534;BME280;32260;52.008;4.752;2023-08-06T08:20:18;100767.16;;;17.23;75.91
46534;BME280;32260;52.008;4.752;2023-08-06T08:22:44;100774.91;;;17.29;75.82
46534;BME280;32260;52.008;4.752;2023-08-06T08:25:10;100769.41;;;17.32;75.87
46534;BME280;32260;52.008;4.752;2023-08-06T08:27:37;100777.06;;;17.40;75.79
46534;BME280;32260;52.008;4.752;2023-08-06T08:30:03;100778.72;;;17.42;75.78
46534;BME280;32260;52.008;4.752;2023-08-06T08:32:29;100790.28;;;17.43;75.33
46534;BME280;32260;52.008;4.752;2023-08-06T08:34:56;100783.03;;;17.45;75.25
46534;BME280;32260;52.008;4.752;2023-08-06T08:37:23;100785.09;;;17.40;74.62
46534;BME280;32260;52.008;4.752;2023-08-06T08:39:50;100781.00;;;17.50;74.94
46534;BME280;32260;52.008;4.752;2023-08-06T08:42:16;100782.09;;;17.46;74.42
46534;BME280;32260;52.008;4.752;2023-08-06T08:44:43;100794.38;;;17.50;74.37
46534;BME280;32260;52.008;4.752;2023-08-06T08:47:10;100789.75;;;17.54;74.13
46534;BME280;32260;52.008;4.752;2023-08-06T08:49:37;100788.63;;;17.58;73.90
46534;BME280;32260;52.008;4.752;2023-08-06T08:52:04;100792.91;;;17.62;73.67
46534;BME280;32260;52.008;4.752;2023-08-06T08:54:33;100790.06;;;17.65;73.52
46534;BME280;32260;52.008;4.752;2023-08-06T08:57:00;100791.50;;;17.72;73.67
46534;BME280;32260;52.008;4.752;2023-08-06T08:59:27;100795.25;;;17.68;73.34
46534;BME280;32260;52.008;4.752;2023-08-06T09:01:54;100798.19;;;17.81;73.33
46534;BME280;32260;52.008;4.752;2023-08-06T09:04:21;100803.66;;;17.79;73.58
46534;BME280;32260;52.008;4.752;2023-08-06T09:06:50;100807.50;;;17.91;73.22
46534;BME280;32260;52.008;4.752;2023-08-06T09:09:30;100813.13;;;18.04;73.27
46534;BME280;32260;52.008;4.752;2023-08-06T09:12:01;100813.59;;;17.95;72.97
46534;BME280;32260;52.008;4.752;2023-08-06T09:14:28;100804.53;;;17.98;72.77
46534;BME280;32260;52.008;4.752;2023-08-06T09:16:55;100808.25;;;17.95;72.87
46534;BME280;32260;52.008;4.752;2023-08-06T09:19:23;100811.47;;;18.02;73.02
46534;BME280;32260;52.008;4.752;2023-08-06T09:21:52;100810.13;;;18.10;72.86
46534;BME280;32260;52.008;4.752;2023-08-06T09:24:18;100816.13;;;18.16;72.83
46534;BME280;32260;52.008;4.752;2023-08-06T09:26:45;100817.53;;;18.23;72.54
46534;BME280;32260;52.008;4.752;2023-08-06T09:29:11;100815.63;;;18.25;71.18
46534;BME280;32260;52.008;4.752;2023-08-06T09:31:47;100833.03;;;18.51;72.13
46534;BME280;32260;52.008;4.752;2023-08-06T09:34:17;100826.63;;;18.54;71.10
46534;BME280;32260;52.008;4.752;2023-08-06T09:36:47;100826.66;;;18.70;71.38
46534;BME280;32260;52.008;4.752;2023-08-06T09:39:15;100830.75;;;18.77;71.13
46534;BME280;32260;52.008;4.752;2023-08-06T09:41:42;100826.56;;;19.05;71.07
46534;BME280;32260;52.008;4.752;2023-08-06T09:44:17;100835.22;;;19.26;70.56
46534;BME280;32260;52.008;4.752;2023-08-06T09:46:48;100838.09;;;19.39;70.01
46534;BME280;32260;52.008;4.752;2023-08-06T09:49:15;100842.09;;;19.48;68.43
46534;BME280;32260;52.008;4.752;2023-08-06T09:51:41;100852.19;;;19.59;68.45
46534;BME280;32260;52.008;4.752;2023-08-06T09:54:09;100850.19;;;19.62;68.13
46534;BME280;32260;52.008;4.752;2023-08-06T09:56:38;100853.25;;;19.56;66.76
46534;BME280;32260;52.008;4.752;2023-08-06T09:59:05;100864.69;;;19.60;66.94
46534;BME280;32260;52.008;4.752;2023-08-06T10:01:33;100858.97;;;19.50;66.03
46534;BME280;32260;52.008;4.752;2023-08-06T10:04:04;100854.38;;;19.52;67.19
46534;BME280;32260;52.008;4.752;2023-08-06T10:06:34;100862.25;;;19.55;66.01
46534;BME280;32260;52.008;4.752;2023-08-06T10:09:03;100874.69;;;19.42;65.99
46534;BME280;32260;52.008;4.752;2023-08-06T10:11:30;100872.69;;;19.45;65.83
46534;BME280;32260;52.008;4.752;2023-08-06T10:14:19;100867.81;;;19.52;66.19
46534;BME280;32260;52.008;4.752;2023-08-06T10:16:47;100874.13;;;19.51;66.64
46534;BME280;32260;52.008;4.752;2023-08-06T10:19:15;100873.34;;;19.49;65.47
46534;BME280;32260;52.008;4.752;2023-08-06T10:21:55;100865.72;;;19.57;66.45
46534;BME280;32260;52.008;4.752;2023-08-06T10:24:32;100864.81;;;19.72;65.51
46534;BME280;32260;52.008;4.752;2023-08-06T10:27:10;100859.53;;;19.71;62.71
46534;BME280;32260;52.008;4.752;2023-08-06T10:29:37;100863.81;;;19.75;62.12
46534;BME280;32260;52.008;4.752;2023-08-06T10:32:04;100866.94;;;19.83;63.22
46534;BME280;32260;52.008;4.752;2023-08-06T10:34:58;100877.16;;;19.77;63.13
46534;BME280;32260;52.008;4.752;2023-08-06T10:37:45;100876.72;;;19.68;62.03
46534;BME280;32260;52.008;4.752;2023-08-06T10:40:11;100874.91;;;19.69;63.09
46534;BME280;32260;52.008;4.752;2023-08-06T10:42:46;100874.03;;;19.68;62.10
46534;BME280;32260;52.008;4.752;2023-08-06T10:47:48;100877.31;;;19.73;61.78
46534;BME280;32260;52.008;4.752;2023-08-06T10:50:15;100875.16;;;19.96;63.24
46534;BME280;32260;52.008;4.752;2023-08-06T10:52:46;100873.28;;;20.13;60.20
46534;BME280;32260;52.008;4.752;2023-08-06T10:55:13;100878.41;;;20.32;60.49
46534;BME280;32260;52.008;4.752;2023-08-06T10:57:39;100869.00;;;20.39;59.72
46534;BME280;32260;52.008;4.752;2023-08-06T11:00:07;100884.66;;;20.32;58.46
46534;BME280;32260;52.008;4.752;2023-08-06T11:02:36;100876.31;;;20.37;58.35
46534;BME280;32260;52.008;4.752;2023-08-06T11:05:10;100877.19;;;20.52;59.27
46534;BME280;32260;52.008;4.752;2023-08-06T11:07:38;100876.25;;;20.67;59.39
46534;BME280;32260;52.008;4.752;2023-08-06T11:10:05;100874.84;;;20.76;57.86
46534;BME280;32260;52.008;4.752;2023-08-06T11:12:32;100880.66;;;20.68;55.82
46534;BME280;32260;52.008;4.752;2023-08-06T11:14:59;100880.81;;;20.81;56.39
46534;BME280;32260;52.008;4.752;2023-08-06T11:17:27;100876.63;;;20.61;54.36
46534;BME280;32260;52.008;4.752;2023-08-06T11:19:53;100878.56;;;20.59;54.80
46534;BME280;32260;52.008;4.752;2023-08-06T11:22:21;100885.56;;;20.62;56.34
46534;BME280;32260;52.008;4.752;2023-08-06T11:24:48;100877.19;;;20.38;53.69
46534;BME280;32260;52.008;4.752;2023-08-06T11:27:15;100877.38;;;20.63;55.41
46534;BME280;32260;52.008;4.752;2023-08-06T11:29:44;100875.28;;;20.68;55.93
46534;BME280;32260;52.008;4.752;2023-08-06T11:32:11;100885.53;;;20.78;55.67
46534;BME280;32260;52.008;4.752;2023-08-06T11:34:38;100883.50;;;20.81;55.19
46534;BME280;32260;52.008;4.752;2023-08-06T11:37:05;100885.63;;;20.76;54.16
46534;BME280;32260;52.008;4.752;2023-08-06T11:39:34;100882.03;;;20.76;53.66
46534;BME280;32260;52.008;4.752;2023-08-06T11:42:02;100883.41;;;20.83;52.57
46534;BME280;32260;52.008;4.752;2023-08-06T11:44:31;100885.31;;;20.95;53.17
46534;BME280;32260;52.008;4.752;2023-08-06T11:47:01;100886.78;;;21.01;51.02
46534;BME280;32260;52.008;4.752;2023-08-06T11:49:48;100878.88;;;20.98;52.56
46534;BME280;32260;52.008;4.752;2023-08-06T11:52:16;100890.22;;;21.03;52.02
46534;BME280;32260;52.008;4.752;2023-08-06T11:54:47;100887.06;;;20.96;52.27
46534;BME280;32260;52.008;4.752;2023-08-06T11:57:13;100891.84;;;21.20;52.21
46534;BME280;32260;52.008;4.752;2023-08-06T11:59:39;100888.72;;;21.41;52.56
46534;BME280;32260;52.008;4.752;2023-08-06T12:02:08;100880.81;;;21.52;51.14
46534;BME280;32260;52.008;4.752;2023-08-06T12:05:04;100881.16;;;21.75;50.63
46534;BME280;32260;52.008;4.752;2023-08-06T12:07:32;100879.25;;;21.90;52.12
46534;BME280;32260;52.008;4.752;2023-08-06T12:09:59;100881.03;;;22.04;52.53
46534;BME280;32260;52.008;4.752;2023-08-06T12:12:25;100885.47;;;22.05;52.43
46534;BME280;32260;52.008;4.752;2023-08-06T12:14:51;100884.28;;;21.81;51.16
46534;BME280;32260;52.008;4.752;2023-08-06T12:17:17;100885.72;;;21.45;50.10
46534;BME280;32260;52.008;4.752;2023-08-06T12:19:45;100900.66;;;21.51;52.15
46534;BME280;32260;52.008;4.752;2023-08-06T12:22:13;100889.03;;;21.36;52.08
46534;BME280;32260;52.008;4.752;2023-08-06T12:24:40;100904.53;;;21.32;52.61
46534;BME280;32260;52.008;4.752;2023-08-06T12:27:07;100895.50;;;21.33;52.29
46534;BME280;32260;52.008;4.752;2023-08-06T12:29:33;100903.75;;;21.30;52.30
46534;BME280;32260;52.008;4.752;2023-08-06T12:31:59;100900.28;;;21.43;52.64
46534;BME280;32260;52.008;4.752;2023-08-06T12:34:25;100915.03;;;21.37;52.71
46534;BME280;32260;52.008;4.752;2023-08-06T12:36:51;100911.06;;;21.57;53.01
46534;BME280;32260;52.008;4.752;2023-08-06T12:39:17;100916.59;;;21.54;52.67
46534;BME280;32260;52.008;4.752;2023-08-06T12:41:43;100912.09;;;21.55;52.67
46534;BME280;32260;52.008;4.752;2023-08-06T12:44:12;100931.09;;;21.39;52.93
46534;BME280;32260;52.008;4.752;2023-08-06T12:46:38;100918.41;;;21.26;53.00
46534;BME280;32260;52.008;4.752;2023-08-06T12:49:04;100926.59;;;21.25;53.34
46534;BME280;32260;52.008;4.752;2023-08-06T12:51:31;100921.66;;;21.31;53.15
46534;BME280;32260;52.008;4.752;2023-08-06T12:53:59;100929.19;;;21.26;53.17